Time;durP1;ratioP1;P1;durP2;ratioP2;P2;SDS_P1;SDS_P2;PMS_P1;PMS_P2;Temp;Humidity;BMP_temperature;BMP_pressure;BME280_temperature;BME280_humidity;BME280_pressure;Samples;Min_cycle;Max_cycle;Signal;HPM_P1;HPM_P2
2022/05/16 00:00:24;;;;;;;6.87;2.30;;;19.50;99.90;;;;;;5019695;28;20194;-52
2022/05/16 00:02:52;;;;;;;5.37;2.77;;;19.40;99.90;;;;;;5020431;28;20284;-51
2022/05/16 00:05:20;;;;;;;4.27;2.70;;;19.50;99.90;;;;;;5019572;28;20251;-53
2022/05/16 00:07:47;;;;;;;6.57;2.80;;;19.40;99.90;;;;;;5021479;28;20197;-52
2022/05/16 00:10:15;;;;;;;8.17;3.23;;;19.40;99.90;;;;;;5023272;28;20287;-52
2022/05/16 00:12:43;;;;;;;7.23;3.37;;;19.40;99.90;;;;;;5025847;28;20707;-52
2022/05/16 00:15:12;;;;;;;5.67;2.60;;;19.40;99.90;;;;;;5016211;28;20291;-52
2022/05/16 00:17:40;;;;;;;5.67;2.60;;;19.30;99.90;;;;;;5018582;28;20201;-53
2022/05/16 00:20:08;;;;;;;8.03;2.80;;;19.30;99.90;;;;;;5017651;28;20284;-53
2022/05/16 00:22:36;;;;;;;6.43;2.33;;;19.30;99.90;;;;;;5018784;28;20306;-52
2022/05/16 00:25:06;;;;;;;6.50;2.57;;;19.30;99.90;;;;;;5022665;28;20300;-52
2022/05/16 00:27:36;;;;;;;4.97;3.00;;;19.20;99.90;;;;;;5026564;28;20204;-52
2022/05/16 00:30:09;;;;;;;8.40;2.83;;;19.20;99.90;;;;;;5024009;28;20290;-52
2022/05/16 00:32:36;;;;;;;6.23;2.70;;;19.10;99.90;;;;;;5031727;28;20689;-51
2022/05/16 00:35:05;;;;;;;5.77;2.93;;;19.10;99.90;;;;;;5020252;28;20233;-54
2022/05/16 00:37:32;;;;;;;7.67;2.63;;;19.00;99.90;;;;;;5020701;28;20189;-51
2022/05/16 00:39:59;;;;;;;5.67;2.30;;;19.10;99.90;;;;;;5023440;28;20193;-52
2022/05/16 00:42:26;;;;;;;7.43;2.80;;;19.10;99.90;;;;;;5028042;28;20236;-50
2022/05/16 00:44:53;;;;;;;5.17;2.90;;;19.10;99.90;;;;;;5022451;28;20576;-51
2022/05/16 00:47:20;;;;;;;8.17;3.77;;;19.10;99.90;;;;;;5021608;28;21515;-51
2022/05/16 00:49:49;;;;;;;9.90;2.80;;;19.10;99.90;;;;;;5019471;28;20708;-52
2022/05/16 00:52:21;;;;;;;6.77;2.37;;;19.00;99.90;;;;;;5025070;28;20311;-53
2022/05/16 00:54:53;;;;;;;7.10;2.80;;;19.00;99.90;;;;;;5020381;28;20525;-52
2022/05/16 00:57:24;;;;;;;15.57;4.07;;;18.90;99.90;;;;;;5020229;28;20280;-52
2022/05/16 01:00:06;;;;;;;7.13;2.93;;;18.90;99.90;;;;;;4997256;28;20245;-52
2022/05/16 01:05:19;;;;;;;7.53;2.93;;;18.90;99.90;;;;;;4998065;28;20200;-52
2022/05/16 01:07:47;;;;;;;8.70;2.77;;;18.80;99.90;;;;;;4997980;28;20297;-52
2022/05/16 01:10:18;;;;;;;4.67;2.83;;;18.70;99.90;;;;;;5000425;28;20260;-52
2022/05/16 01:12:48;;;;;;;5.43;2.53;;;18.60;99.90;;;;;;5000602;28;20677;-52
2022/05/16 01:15:34;;;;;;;8.57;3.83;;;18.60;99.90;;;;;;4998386;28;20231;-52
2022/05/16 01:18:01;;;;;;;4.10;2.63;;;18.60;99.90;;;;;;5006665;28;20200;-51
2022/05/16 01:21:02;;;;;;;9.93;3.80;;;18.70;99.90;;;;;;4997559;28;20352;-55
2022/05/16 01:23:34;;;;;;;8.57;3.00;;;18.60;99.90;;;;;;4999364;28;20661;-53
2022/05/16 01:26:08;;;;;;;6.33;3.53;;;18.60;99.90;;;;;;4995932;28;20206;-53
2022/05/16 01:28:35;;;;;;;7.60;3.30;;;18.60;99.90;;;;;;4997207;28;21413;-53
2022/05/16 01:31:02;;;;;;;6.07;3.23;;;18.50;99.90;;;;;;5001723;28;20206;-52
2022/05/16 01:33:29;;;;;;;5.10;2.87;;;18.60;99.90;;;;;;5002121;28;20213;-53
2022/05/16 01:35:56;;;;;;;6.37;3.20;;;18.50;99.90;;;;;;5004613;28;20536;-54
2022/05/16 01:38:27;;;;;;;10.47;3.20;;;18.50;99.90;;;;;;5003099;28;20672;-53
2022/05/16 01:41:09;;;;;;;7.40;3.60;;;18.40;99.90;;;;;;5004418;28;20560;-52
2022/05/16 01:43:40;;;;;;;8.93;3.10;;;18.30;99.90;;;;;;5006591;28;20278;-53
2022/05/16 01:46:08;;;;;;;9.37;3.00;;;18.30;99.90;;;;;;5002491;28;20294;-52
2022/05/16 01:48:35;;;;;;;6.10;3.33;;;18.20;99.90;;;;;;5003188;28;20295;-52
2022/05/16 01:51:05;;;;;;;7.53;3.23;;;18.20;99.90;;;;;;5001984;28;20834;-52
2022/05/16 01:53:32;;;;;;;7.17;3.70;;;18.30;99.90;;;;;;5003533;28;20221;-52
2022/05/16 01:55:59;;;;;;;6.87;3.27;;;18.10;99.90;;;;;;4999674;28;20233;-52
2022/05/16 01:58:27;;;;;;;10.93;3.43;;;18.20;99.90;;;;;;5012927;28;20283;-52
2022/05/16 02:00:54;;;;;;;7.20;3.23;;;18.30;99.90;;;;;;5021304;28;20196;-52
2022/05/16 02:03:21;;;;;;;7.30;3.50;;;18.30;99.90;;;;;;5015102;28;20212;-52
2022/05/16 02:05:49;;;;;;;9.07;3.50;;;18.20;99.90;;;;;;5019394;28;20695;-52
2022/05/16 02:08:16;;;;;;;7.97;3.03;;;18.20;99.90;;;;;;5018750;28;20740;-53
2022/05/16 02:10:45;;;;;;;6.43;3.83;;;18.20;99.90;;;;;;5019960;28;20632;-52
2022/05/16 02:13:12;;;;;;;5.80;3.17;;;18.10;99.90;;;;;;5024688;28;20247;-52
2022/05/16 02:15:42;;;;;;;6.43;3.00;;;18.10;99.90;;;;;;5021069;28;20234;-52
2022/05/16 02:18:09;;;;;;;7.80;3.10;;;18.00;99.90;;;;;;5023480;28;20233;-52
2022/05/16 02:20:37;;;;;;;6.07;3.03;;;18.00;99.90;;;;;;5017615;28;20720;-52
2022/05/16 02:25:56;;;;;;;8.07;3.30;;;18.10;99.90;;;;;;5031394;28;20205;-52
2022/05/16 02:28:23;;;;;;;6.07;3.73;;;18.10;99.90;;;;;;5019259;28;20299;-52
2022/05/16 02:30:51;;;;;;;7.03;3.53;;;18.10;99.90;;;;;;5030143;28;20224;-52
2022/05/16 02:33:19;;;;;;;11.27;3.60;;;18.10;99.90;;;;;;5026798;28;20718;-51
2022/05/16 02:35:47;;;;;;;7.50;3.57;;;18.10;99.90;;;;;;5024282;28;20297;-52
2022/05/16 02:38:16;;;;;;;6.50;3.40;;;18.10;99.90;;;;;;5018307;28;20235;-52
2022/05/16 02:40:43;;;;;;;6.33;2.87;;;18.10;99.90;;;;;;5023571;28;20590;-52
2022/05/16 02:43:09;;;;;;;6.30;3.50;;;18.10;99.90;;;;;;5021981;28;20279;-52
2022/05/16 02:45:37;;;;;;;10.53;3.77;;;18.10;99.90;;;;;;5024090;28;20203;-52
2022/05/16 02:48:05;;;;;;;6.20;3.13;;;18.00;99.90;;;;;;5022346;28;20196;-52
2022/05/16 02:50:32;;;;;;;4.97;3.10;;;18.00;99.90;;;;;;5024430;28;20610;-52
2022/05/16 02:52:59;;;;;;;6.03;2.97;;;18.10;99.90;;;;;;5021459;28;20615;-52
2022/05/16 02:55:26;;;;;;;7.70;3.10;;;18.00;99.90;;;;;;5018301;28;20609;-52
2022/05/16 02:57:52;;;;;;;7.63;3.33;;;18.00;99.90;;;;;;5026356;28;20282;-52
2022/05/16 03:00:19;;;;;;;8.00;3.60;;;18.00;99.90;;;;;;5024266;28;20228;-52
2022/05/16 03:02:46;;;;;;;6.73;3.30;;;18.00;99.90;;;;;;5028753;28;20702;-52
2022/05/16 03:05:14;;;;;;;5.53;3.37;;;17.90;99.90;;;;;;5022079;28;20703;-52
2022/05/16 03:07:42;;;;;;;6.63;3.07;;;17.90;99.90;;;;;;5028540;28;21094;-52
2022/05/16 03:10:11;;;;;;;8.07;3.27;;;17.90;99.90;;;;;;5028899;28;20233;-52
2022/05/16 03:12:37;;;;;;;8.00;3.33;;;17.80;99.90;;;;;;5029313;28;20229;-51
2022/05/16 03:15:05;;;;;;;6.60;3.50;;;17.90;99.90;;;;;;5025844;28;20231;-56
2022/05/16 03:17:32;;;;;;;8.80;3.73;;;17.90;99.90;;;;;;5024844;28;20235;-54
2022/05/16 03:20:00;;;;;;;6.73;3.50;;;18.00;99.90;;;;;;5025869;28;20668;-53
2022/05/16 03:22:30;;;;;;;8.50;3.07;;;17.90;99.90;;;;;;5023433;28;20220;-53
2022/05/16 03:24:57;;;;;;;5.90;3.60;;;17.90;99.90;;;;;;5024419;28;22988;-53
2022/05/16 03:27:23;;;;;;;7.57;3.60;;;17.90;99.90;;;;;;5023543;28;20225;-53
2022/05/16 03:29:50;;;;;;;6.00;3.13;;;17.80;99.90;;;;;;5027167;28;20297;-53
2022/05/16 03:32:17;;;;;;;6.83;3.47;;;17.80;99.90;;;;;;5027470;28;20240;-53
2022/05/16 03:34:44;;;;;;;7.10;3.60;;;17.80;99.90;;;;;;5025706;28;20209;-53
2022/05/16 03:37:11;;;;;;;6.00;3.70;;;17.70;99.90;;;;;;5035540;28;20200;-52
2022/05/16 03:42:23;;;;;;;6.87;3.83;;;17.70;99.90;;;;;;5020385;28;20201;-52
2022/05/16 03:44:50;;;;;;;6.20;3.23;;;17.60;99.90;;;;;;5022807;28;20656;-52
2022/05/16 03:47:17;;;;;;;6.80;4.00;;;17.70;99.90;;;;;;5025845;28;20579;-52
2022/05/16 03:49:45;;;;;;;9.43;4.40;;;17.70;99.90;;;;;;5030725;28;20394;-52
2022/05/16 03:52:11;;;;;;;7.87;3.90;;;17.70;99.90;;;;;;5032631;28;20675;-52
2022/05/16 03:54:42;;;;;;;5.70;3.10;;;17.70;99.90;;;;;;5024609;28;20228;-52
2022/05/16 03:57:09;;;;;;;6.57;3.80;;;17.60;99.90;;;;;;5027968;28;20705;-52
2022/05/16 03:59:36;;;;;;;7.47;3.53;;;17.70;99.90;;;;;;5026057;28;20334;-51
2022/05/16 04:02:05;;;;;;;6.63;3.77;;;17.60;99.90;;;;;;5025053;28;20370;-52
2022/05/16 04:04:32;;;;;;;7.93;3.17;;;17.50;99.90;;;;;;5022739;28;20288;-52
2022/05/16 04:06:59;;;;;;;5.70;3.93;;;17.60;99.90;;;;;;5026697;28;20598;-53
2022/05/16 04:09:26;;;;;;;9.13;4.50;;;17.50;99.90;;;;;;5021922;28;20963;-52
2022/05/16 04:11:53;;;;;;;5.93;3.50;;;17.50;99.90;;;;;;5023500;28;20307;-58
2022/05/16 04:14:19;;;;;;;6.00;3.67;;;17.60;99.90;;;;;;5027074;28;20255;-52
2022/05/16 04:16:46;;;;;;;9.53;3.83;;;17.50;99.90;;;;;;5025696;28;20303;-53
2022/05/16 04:19:13;;;;;;;8.50;4.00;;;17.50;99.90;;;;;;5023089;28;20197;-52
2022/05/16 04:21:40;;;;;;;6.23;3.80;;;17.50;99.90;;;;;;5024207;28;20730;-52
2022/05/16 04:24:07;;;;;;;6.77;4.37;;;17.50;99.90;;;;;;5021825;28;20228;-52
2022/05/16 04:26:34;;;;;;;7.03;3.53;;;17.50;99.90;;;;;;5030768;28;20654;-52
2022/05/16 04:29:02;;;;;;;5.67;3.90;;;17.40;99.90;;;;;;5021680;28;20810;-54
2022/05/16 04:31:29;;;;;;;5.80;4.10;;;17.20;99.90;;;;;;5023789;28;20232;-53
2022/05/16 04:33:56;;;;;;;7.23;4.07;;;17.30;99.90;;;;;;5033246;28;20660;-53
2022/05/16 04:36:23;;;;;;;6.10;3.77;;;17.10;99.90;;;;;;5024538;28;20232;-53
2022/05/16 04:38:50;;;;;;;8.27;3.67;;;17.20;99.90;;;;;;5027415;28;20633;-53
2022/05/16 04:44:08;;;;;;;9.33;4.20;;;17.40;99.90;;;;;;5024049;28;20235;-53
2022/05/16 04:46:35;;;;;;;9.07;3.97;;;17.40;99.90;;;;;;5018833;28;20229;-52
2022/05/16 04:49:02;;;;;;;7.47;4.50;;;17.50;99.90;;;;;;5024125;28;20297;-52
2022/05/16 04:51:30;;;;;;;7.47;5.13;;;17.40;99.90;;;;;;5021721;28;20590;-52
2022/05/16 04:53:57;;;;;;;5.30;4.63;;;17.40;99.90;;;;;;5027680;28;20303;-53
2022/05/16 04:56:24;;;;;;;6.63;4.03;;;17.40;99.90;;;;;;5023431;28;20653;-52
2022/05/16 04:58:50;;;;;;;6.47;4.30;;;17.40;99.90;;;;;;5021807;28;20806;-52
2022/05/16 05:01:17;;;;;;;6.83;5.03;;;17.50;99.90;;;;;;5019559;28;20198;-52
2022/05/16 05:03:44;;;;;;;8.30;4.77;;;17.30;99.90;;;;;;5020839;28;20200;-51
2022/05/16 05:06:11;;;;;;;7.20;5.17;;;17.40;99.90;;;;;;5029771;28;20205;-51
2022/05/16 05:08:38;;;;;;;6.97;5.03;;;17.50;99.90;;;;;;5030611;28;21042;-53
2022/05/16 05:16:38;;;;;;;8.73;4.80;;;17.60;99.90;;;;;;5027121;28;20197;-52
2022/05/16 05:19:05;;;;;;;11.13;5.33;;;17.50;99.90;;;;;;5022981;28;20203;-52
2022/05/16 05:21:32;;;;;;;10.30;5.07;;;17.60;99.90;;;;;;5023857;28;20627;-52
2022/05/16 05:23:59;;;;;;;9.80;5.10;;;17.70;99.90;;;;;;5014369;28;20227;-52
2022/05/16 05:26:27;;;;;;;9.00;5.23;;;17.80;99.90;;;;;;5017840;28;20228;-53
2022/05/16 05:28:53;;;;;;;9.80;5.90;;;17.90;99.90;;;;;;5023567;28;20292;-52
2022/05/16 05:31:25;;;;;;;9.03;5.67;;;18.10;99.90;;;;;;5022718;28;20225;-52
2022/05/16 05:33:53;;;;;;;7.80;5.20;;;18.20;99.90;;;;;;5023629;28;20214;-52
2022/05/16 05:36:20;;;;;;;9.30;5.60;;;18.30;99.90;;;;;;5019237;28;20267;-52
2022/05/16 05:38:51;;;;;;;10.70;6.80;;;18.40;99.90;;;;;;5020576;28;20189;-53
2022/05/16 05:41:20;;;;;;;10.00;5.83;;;18.30;99.90;;;;;;5022074;28;20633;-53
2022/05/16 05:43:48;;;;;;;9.93;6.10;;;18.40;99.90;;;;;;5011410;28;20308;-53
2022/05/16 05:46:16;;;;;;;9.70;6.47;;;18.40;99.90;;;;;;5014817;28;20284;-53
2022/05/16 05:48:44;;;;;;;10.50;5.80;;;18.50;99.90;;;;;;5013163;28;20282;-52
2022/05/16 05:51:11;;;;;;;9.23;5.77;;;18.60;99.90;;;;;;5006681;28;20617;-53
2022/05/16 05:53:41;;;;;;;7.53;5.90;;;18.70;99.90;;;;;;5015974;28;20589;-53
2022/05/16 05:56:09;;;;;;;8.77;5.47;;;18.70;99.90;;;;;;5013557;28;20203;-53
2022/05/16 05:58:37;;;;;;;10.53;5.70;;;18.80;99.90;;;;;;5016895;28;20610;-52
2022/05/16 06:01:06;;;;;;;6.47;5.00;;;18.80;99.90;;;;;;5014649;28;20205;-53
2022/05/16 06:03:33;;;;;;;7.50;4.80;;;18.90;99.90;;;;;;5018403;28;20211;-52
2022/05/16 06:06:01;;;;;;;7.47;5.07;;;18.90;99.90;;;;;;5019356;28;20200;-52
2022/05/16 06:08:27;;;;;;;6.47;5.10;;;18.90;99.90;;;;;;5014573;28;20230;-52
2022/05/16 06:10:54;;;;;;;11.20;4.87;;;18.90;99.90;;;;;;5011823;28;20290;-53
2022/05/16 06:13:21;;;;;;;5.83;4.53;;;19.00;99.90;;;;;;5015293;28;20250;-52
2022/05/16 06:15:48;;;;;;;8.77;4.90;;;19.00;99.90;;;;;;5013748;28;20238;-52
2022/05/16 06:18:15;;;;;;;6.87;4.67;;;19.00;99.90;;;;;;5014461;28;20236;-52
2022/05/16 06:20:42;;;;;;;6.67;4.53;;;19.10;99.90;;;;;;5016286;28;20282;-52
2022/05/16 06:23:09;;;;;;;7.50;4.70;;;19.10;99.90;;;;;;5018425;28;20346;-53
2022/05/16 06:25:39;;;;;;;7.30;4.83;;;19.20;99.90;;;;;;5023045;28;20280;-53
2022/05/16 06:28:12;;;;;;;6.30;4.20;;;19.20;99.90;;;;;;5019090;28;20649;-53
2022/05/16 06:30:41;;;;;;;5.97;4.43;;;19.30;99.90;;;;;;5014908;28;20296;-53
2022/05/16 06:33:08;;;;;;;5.67;4.40;;;19.30;99.90;;;;;;5013606;28;20750;-54
2022/05/16 06:35:36;;;;;;;9.53;4.07;;;19.40;99.90;;;;;;5018315;28;20753;-61
2022/05/16 06:38:09;;;;;;;8.57;4.37;;;19.60;99.90;;;;;;5014709;28;20260;-61
2022/05/16 06:40:38;;;;;;;6.97;4.13;;;19.80;99.90;;;;;;5022084;28;20330;-60
2022/05/16 06:43:06;;;;;;;6.53;3.77;;;20.10;99.90;;;;;;5027592;28;20288;-59
2022/05/16 06:45:33;;;;;;;11.50;4.20;;;20.40;99.90;;;;;;5022245;28;20267;-58
2022/05/16 06:48:01;;;;;;;6.80;3.90;;;20.60;99.90;;;;;;5023009;28;20212;-52
2022/05/16 06:50:30;;;;;;;6.27;3.63;;;20.90;99.90;;;;;;5023843;28;20217;-53
2022/05/16 06:52:57;;;;;;;6.00;3.50;;;20.80;99.90;;;;;;5018720;28;20580;-52
2022/05/16 06:55:24;;;;;;;10.40;3.60;;;21.00;99.90;;;;;;5023988;28;20311;-52
2022/05/16 06:57:51;;;;;;;5.00;3.07;;;21.10;99.90;;;;;;5032560;28;20197;-53
2022/05/16 07:00:19;;;;;;;5.53;3.07;;;21.00;99.90;;;;;;5017877;28;20332;-53
2022/05/16 07:02:46;;;;;;;7.83;3.00;;;21.10;99.90;;;;;;5025474;28;20228;-53
2022/05/16 07:05:33;;;;;;;8.17;2.87;;;21.40;99.90;;;;;;5022017;28;20201;-53
2022/05/16 07:08:00;;;;;;;4.67;3.17;;;21.30;99.90;;;;;;5020818;28;20224;-52
2022/05/16 07:10:27;;;;;;;4.60;2.57;;;21.20;99.90;;;;;;5015810;28;20671;-52
2022/05/16 07:12:55;;;;;;;6.57;3.10;;;21.30;99.90;;;;;;5021429;28;20336;-51
2022/05/16 07:15:21;;;;;;;7.43;2.90;;;21.30;99.90;;;;;;5013063;28;20213;-53
2022/05/16 07:17:48;;;;;;;7.53;3.20;;;21.30;99.90;;;;;;5014184;28;20295;-53
2022/05/16 07:20:16;;;;;;;4.53;2.97;;;21.20;99.90;;;;;;5017217;28;20285;-52
2022/05/16 07:22:45;;;;;;;4.97;3.10;;;21.20;99.90;;;;;;5017502;28;20229;-53
2022/05/16 07:25:14;;;;;;;3.97;2.87;;;21.20;99.90;;;;;;5018508;28;20260;-53
2022/05/16 07:27:56;;;;;;;9.10;3.10;;;21.10;99.90;;;;;;5017039;28;20223;-52
2022/05/16 07:30:29;;;;;;;8.23;2.70;;;21.20;99.90;;;;;;5019826;28;20351;-53
2022/05/16 07:32:57;;;;;;;7.07;3.30;;;21.30;99.90;;;;;;5023611;28;20295;-54
2022/05/16 07:35:28;;;;;;;5.40;3.00;;;21.40;99.90;;;;;;5017907;28;20712;-54
2022/05/16 07:37:55;;;;;;;3.80;2.67;;;21.40;99.90;;;;;;5020939;28;20303;-52
2022/05/16 07:40:25;;;;;;;4.93;3.00;;;21.30;99.90;;;;;;5019550;28;20196;-53
2022/05/16 07:42:53;;;;;;;5.63;2.57;;;21.30;99.90;;;;;;5023633;28;20312;-54
2022/05/16 07:45:22;;;;;;;4.93;2.80;;;21.20;99.90;;;;;;5027860;28;20209;-53
2022/05/16 07:47:49;;;;;;;4.13;2.80;;;21.30;99.90;;;;;;5020125;28;20197;-52
2022/05/16 07:50:24;;;;;;;6.33;3.07;;;21.40;99.90;;;;;;5014991;28;20209;-53
2022/05/16 07:52:51;;;;;;;7.90;3.40;;;21.30;99.90;;;;;;5020727;28;20296;-53
2022/05/16 07:55:22;;;;;;;6.07;3.07;;;21.40;99.90;;;;;;5028442;28;20224;-53
2022/05/16 07:57:49;;;;;;;5.03;3.10;;;21.40;99.90;;;;;;5017142;28;20209;-54
2022/05/16 08:00:18;;;;;;;5.60;3.20;;;21.40;99.90;;;;;;5016761;28;20370;-55
2022/05/16 08:02:45;;;;;;;4.20;3.07;;;21.40;99.90;;;;;;5019953;28;20192;-54
2022/05/16 08:05:14;;;;;;;4.43;3.03;;;21.40;99.90;;;;;;5017824;28;20458;-57
2022/05/16 08:10:29;;;;;;;3.23;2.70;;;21.30;99.90;;;;;;5019424;28;20524;-54
2022/05/16 08:13:05;;;;;;;6.57;2.97;;;21.30;99.90;;;;;;5019067;28;20660;-54
2022/05/16 08:15:33;;;;;;;3.90;3.03;;;21.50;99.90;;;;;;5017129;28;20299;-54
2022/05/16 08:18:02;;;;;;;6.43;3.10;;;22.20;99.90;;;;;;5023137;28;20224;-54
2022/05/16 08:20:30;;;;;;;14.17;3.67;;;22.50;99.90;;;;;;5021859;28;20200;-53
2022/05/16 08:22:58;;;;;;;7.10;3.50;;;22.80;99.90;;;;;;5018607;28;20756;-54
2022/05/16 08:25:24;;;;;;;8.67;3.07;;;23.00;99.90;;;;;;5020346;28;20303;-53
2022/05/16 08:27:51;;;;;;;7.73;3.30;;;23.20;99.90;;;;;;5023558;28;20232;-54
2022/05/16 08:30:20;;;;;;;3.67;2.67;;;23.20;99.90;;;;;;5012250;28;20201;-54
2022/05/16 08:32:48;;;;;;;6.27;3.00;;;23.60;99.90;;;;;;5018065;28;20206;-54
2022/05/16 08:35:16;;;;;;;11.60;2.73;;;24.00;99.90;;;;;;5020007;28;20216;-54
2022/05/16 08:40:54;;;;;;;4.33;2.60;;;24.10;99.90;;;;;;5019622;28;20201;-54
2022/05/16 08:43:51;;;;;;;7.27;3.03;;;24.50;99.90;;;;;;5013427;28;20196;-53
2022/05/16 08:46:44;;;;;;;5.97;2.80;;;24.50;99.90;;;;;;5020244;28;20270;-54
2022/05/16 08:49:26;;;;;;;7.77;2.77;;;24.70;99.90;;;;;;5025002;28;20200;-53
2022/05/16 08:52:12;;;;;;;7.00;2.73;;;24.90;99.90;;;;;;5022908;28;20210;-55
2022/05/16 08:54:43;;;;;;;4.50;2.33;;;25.30;99.90;;;;;;5019557;28;20328;-54
2022/05/16 08:57:17;;;;;;;6.53;1.90;;;25.40;99.90;;;;;;5018092;28;20249;-55
2022/05/16 08:59:58;;;;;;;4.20;1.93;;;25.30;99.90;;;;;;5019057;28;20262;-54
2022/05/16 09:02:26;;;;;;;2.97;1.80;;;25.40;99.90;;;;;;5025147;28;20279;-55
2022/05/16 09:04:57;;;;;;;5.20;2.10;;;25.40;99.90;;;;;;5020860;28;20207;-55
2022/05/16 09:07:34;;;;;;;8.33;1.90;;;25.60;99.90;;;;;;5017926;28;20297;-63
2022/05/16 09:10:22;;;;;;;4.37;1.60;;;25.80;99.90;;;;;;5017283;28;20232;-62
2022/05/16 09:13:07;;;;;;;6.47;2.53;;;26.20;99.90;;;;;;5023798;28;20241;-64
2022/05/16 09:16:05;;;;;;;3.97;1.50;;;26.20;99.90;;;;;;5022533;28;20754;-63
2022/05/16 09:18:39;;;;;;;2.30;1.57;;;26.40;99.90;;;;;;5016516;28;20236;-63
2022/05/16 09:21:26;;;;;;;7.07;1.70;;;26.30;99.90;;;;;;5022590;28;20633;-64
2022/05/16 09:24:07;;;;;;;3.13;1.67;;;26.40;99.90;;;;;;5021413;28;21205;-64
2022/05/16 09:27:06;;;;;;;3.95;1.73;;;26.70;99.90;;;;;;5026819;28;20765;-64
2022/05/16 09:29:42;;;;;;;3.43;1.83;;;26.90;99.90;;;;;;5019295;28;20201;-63
2022/05/16 09:32:23;;;;;;;3.40;1.67;;;26.80;99.90;;;;;;5018520;28;20319;-63
2022/05/16 09:34:50;;;;;;;4.47;1.63;;;26.40;99.90;;;;;;5017730;28;20235;-63
2022/05/16 09:37:17;;;;;;;4.73;1.53;;;26.70;99.90;;;;;;5018610;28;20189;-63
2022/05/16 09:39:45;;;;;;;4.38;2.30;;;26.80;99.90;;;;;;5027923;28;20201;-63
2022/05/16 09:42:32;;;;;;;5.45;1.55;;;26.80;99.90;;;;;;5016989;28;20203;-63
2022/05/16 09:45:02;;;;;;;2.47;1.40;;;26.70;99.90;;;;;;5018081;28;20201;-62
2022/05/16 09:47:29;;;;;;;3.67;1.57;;;26.80;99.90;;;;;;5016680;28;21030;-63
2022/05/16 09:50:02;;;;;;;6.33;1.90;;;26.70;99.90;;;;;;5015306;28;20204;-62
2022/05/16 09:52:36;;;;;;;5.97;1.80;;;26.80;99.90;;;;;;5020724;28;20273;-63
2022/05/16 09:55:07;;;;;;;4.23;1.80;;;26.60;99.90;;;;;;5022257;28;21107;-62
2022/05/16 09:57:54;;;;;;;3.93;1.70;;;26.50;99.90;;;;;;5019676;28;20698;-63
2022/05/16 10:00:32;;;;;;;3.80;1.60;;;26.40;99.90;;;;;;5015590;28;20256;-63
2022/05/16 10:03:13;;;;;;;5.30;2.00;;;26.60;99.90;;;;;;5014765;28;20669;-63
2022/05/16 10:05:47;;;;;;;5.23;1.63;;;26.70;99.90;;;;;;5020095;28;20218;-63
2022/05/16 10:08:25;;;;;;;5.90;2.37;;;26.70;99.90;;;;;;5016974;28;20216;-62
2022/05/16 10:10:53;;;;;;;4.03;1.63;;;26.50;99.90;;;;;;5015341;28;20295;-63
2022/05/16 10:13:20;;;;;;;5.10;1.80;;;26.10;99.90;;;;;;5026018;28;20844;-63
2022/05/16 10:15:50;;;;;;;6.70;2.10;;;25.90;99.90;;;;;;5019120;28;20246;-65
2022/05/16 10:18:21;;;;;;;3.57;1.80;;;25.90;99.90;;;;;;5022706;28;20305;-64
2022/05/16 10:20:55;;;;;;;2.43;1.60;;;25.90;99.90;;;;;;5022602;28;20278;-62
2022/05/16 10:23:29;;;;;;;3.97;1.90;;;25.60;99.90;;;;;;5017088;28;20237;-63
2022/05/16 10:26:01;;;;;;;4.60;2.00;;;25.60;99.90;;;;;;5019750;28;20204;-63
2022/05/16 10:28:35;;;;;;;8.93;2.10;;;25.60;99.90;;;;;;5023060;28;20227;-63
2022/05/16 10:33:52;;;;;;;8.30;2.83;;;25.10;99.90;;;;;;5012624;28;20208;-66
2022/05/16 10:36:30;;;;;;;6.23;2.47;;;24.90;99.90;;;;;;5016658;28;20220;-63
2022/05/16 10:39:15;;;;;;;9.43;3.30;;;24.60;99.90;;;;;;5008438;28;20200;-63
2022/05/16 10:41:58;;;;;;;6.23;2.80;;;24.50;99.90;;;;;;5027829;28;20257;-62
2022/05/16 10:44:35;;;;;;;5.47;2.90;;;24.20;99.90;;;;;;5022641;28;20917;-63
2022/05/16 10:47:36;;;;;;;9.90;2.70;;;23.90;99.90;;;;;;5026445;28;20339;-63
2022/05/16 10:50:14;;;;;;;5.13;2.40;;;23.70;99.90;;;;;;5002608;28;20213;-62
2022/05/16 10:52:44;;;;;;;7.93;3.40;;;23.40;99.90;;;;;;5021581;28;20236;-62
2022/05/16 10:55:11;;;;;;;14.00;3.93;;;22.90;99.90;;;;;;5018119;28;20212;-62
2022/05/16 10:57:55;;;;;;;7.27;4.93;;;22.50;99.90;;;;;;5020841;28;20196;-63
2022/05/16 11:00:34;;;;;;;9.60;3.77;;;22.10;99.90;;;;;;5014934;28;20315;-54
2022/05/16 11:03:16;;;;;;;6.17;4.33;;;21.90;99.90;;;;;;5013065;28;20213;-54
2022/05/16 11:06:10;;;;;;;9.20;5.63;;;21.60;99.90;;;;;;5018145;28;20203;-54
2022/05/16 11:09:09;;;;;;;7.70;6.23;;;21.20;99.90;;;;;;5019452;28;20327;-55
2022/05/16 11:11:57;;;;;;;8.57;6.73;;;21.00;99.90;;;;;;5025319;28;20236;-54
2022/05/16 11:14:46;;;;;;;10.10;6.80;;;20.70;99.90;;;;;;5020806;28;20232;-53
2022/05/16 11:17:30;;;;;;;11.37;6.93;;;20.60;99.90;;;;;;5024906;28;20221;-54
2022/05/16 11:20:20;;;;;;;9.90;7.23;;;20.50;99.90;;;;;;5014159;28;20306;-54
2022/05/16 11:23:04;;;;;;;13.17;7.30;;;20.30;99.90;;;;;;5023634;28;20395;-55
2022/05/16 11:25:49;;;;;;;10.40;7.67;;;20.30;99.90;;;;;;5014988;28;20229;-54
2022/05/16 11:28:32;;;;;;;8.60;6.80;;;20.50;99.90;;;;;;5034445;28;20303;-54
2022/05/16 11:31:03;;;;;;;8.00;6.53;;;20.60;99.90;;;;;;5018985;28;20280;-54
2022/05/16 11:33:39;;;;;;;10.23;6.97;;;20.70;99.90;;;;;;5027665;28;20201;-54
2022/05/16 11:36:12;;;;;;;13.60;7.00;;;20.60;99.90;;;;;;5021055;28;20312;-54
2022/05/16 11:39:03;;;;;;;11.37;7.20;;;20.60;99.90;;;;;;5029438;28;20746;-54
2022/05/16 11:41:42;;;;;;;8.40;6.33;;;20.80;99.90;;;;;;5021902;28;20658;-55
2022/05/16 11:44:30;;;;;;;9.93;6.57;;;20.70;99.90;;;;;;5022933;28;20276;-54
2022/05/16 11:47:32;;;;;;;12.50;6.87;;;20.90;99.90;;;;;;5021287;28;20288;-54
2022/05/16 11:50:24;;;;;;;10.30;6.97;;;20.90;99.90;;;;;;5020248;28;20583;-54
2022/05/16 11:53:34;;;;;;;14.70;8.17;;;21.10;99.90;;;;;;5020923;28;20204;-54
2022/05/16 12:01:37;;;;;;;13.20;8.40;;;21.60;99.90;;;;;;5019810;28;20254;-55
2022/05/16 12:04:13;;;;;;;11.83;8.00;;;21.50;99.90;;;;;;5025219;28;20204;-54
2022/05/16 12:06:43;;;;;;;9.20;8.30;;;21.40;99.90;;;;;;5015071;28;20196;-55
2022/05/16 12:09:23;;;;;;;13.40;9.07;;;21.40;99.90;;;;;;5021243;28;20208;-55
2022/05/16 12:11:58;;;;;;;13.23;9.00;;;21.40;99.90;;;;;;5012889;28;20631;-55
2022/05/16 12:14:33;;;;;;;12.63;10.03;;;21.60;99.90;;;;;;5017828;28;20691;-54
2022/05/16 12:17:16;;;;;;;12.03;9.37;;;21.30;99.90;;;;;;5017908;28;20551;-53
2022/05/16 12:19:46;;;;;;;11.40;9.60;;;21.30;99.90;;;;;;5020809;28;20703;-54
2022/05/16 12:22:35;;;;;;;13.27;11.87;;;21.30;99.90;;;;;;5019008;28;20274;-54
2022/05/16 12:25:11;;;;;;;21.97;12.33;;;21.30;99.90;;;;;;5017868;28;20300;-55
2022/05/16 12:27:42;;;;;;;16.97;12.07;;;21.00;99.90;;;;;;5015220;28;20618;-54
2022/05/16 12:30:20;;;;;;;16.97;12.67;;;20.50;99.90;;;;;;5016919;28;20199;-54
2022/05/16 12:32:54;;;;;;;19.30;12.23;;;20.30;99.90;;;;;;5010852;28;20196;-57
2022/05/16 12:35:27;;;;;;;18.27;13.57;;;20.30;99.90;;;;;;5014980;28;20209;-55
2022/05/16 12:37:57;;;;;;;16.63;11.83;;;20.30;99.90;;;;;;5013671;28;20296;-54
2022/05/16 12:40:51;;;;;;;18.50;12.50;;;20.30;99.90;;;;;;5011305;28;20197;-54
2022/05/16 12:43:57;;;;;;;16.30;11.73;;;20.20;99.90;;;;;;5007866;28;20221;-54
2022/05/16 12:46:42;;;;;;;16.37;11.90;;;20.00;99.90;;;;;;5012395;28;20204;-55
2022/05/16 12:49:50;;;;;;;15.23;11.63;;;20.00;99.90;;;;;;5016387;28;20212;-55
2022/05/16 12:52:51;;;;;;;17.00;11.33;;;20.00;99.90;;;;;;5011811;28;20665;-55
2022/05/16 12:55:33;;;;;;;18.73;13.13;;;19.80;99.90;;;;;;5017512;28;20288;-54
2022/05/16 12:58:09;;;;;;;20.20;13.10;;;19.70;99.90;;;;;;5016560;28;20248;-54
2022/05/16 13:01:00;;;;;;;15.77;13.23;;;19.80;99.90;;;;;;5018380;28;20269;-54
2022/05/16 13:04:15;;;;;;;18.20;13.53;;;19.70;99.90;;;;;;5014937;28;20213;-54
2022/05/16 13:07:03;;;;;;;18.00;13.10;;;19.50;99.90;;;;;;4994214;28;20315;-54
2022/05/16 13:09:59;;;;;;;19.97;12.97;;;19.50;99.90;;;;;;5025869;28;20288;-53
2022/05/16 13:12:44;;;;;;;22.37;14.93;;;19.50;99.90;;;;;;5015286;28;20293;-53
2022/05/16 13:15:27;;;;;;;19.83;13.90;;;19.60;99.90;;;;;;5011544;28;20720;-54
2022/05/16 13:17:59;;;;;;;18.97;14.00;;;19.60;99.90;;;;;;5018361;28;20278;-55
2022/05/16 13:20:34;;;;;;;15.87;13.00;;;19.60;99.90;;;;;;5015414;28;20292;-54
2022/05/16 13:23:01;;;;;;;22.97;13.87;;;19.80;99.90;;;;;;5010287;28;20262;-54
2022/05/16 13:25:30;;;;;;;21.17;14.23;;;19.70;99.90;;;;;;5011868;28;20339;-54
2022/05/16 13:30:46;;;;;;;22.33;13.73;;;20.00;99.90;;;;;;5005828;28;20310;-53
2022/05/16 13:33:33;;;;;;;17.93;13.17;;;20.10;99.90;;;;;;5003948;28;20205;-54
2022/05/16 13:36:23;;;;;;;17.93;12.93;;;20.10;99.90;;;;;;5016304;28;20308;-54
2022/05/16 13:39:02;;;;;;;15.63;12.33;;;19.90;99.90;;;;;;5015483;28;20317;-54
2022/05/16 13:41:30;;;;;;;19.77;13.23;;;20.00;99.90;;;;;;5020284;28;20260;-54
2022/05/16 13:43:58;;;;;;;15.43;12.00;;;20.10;99.90;;;;;;5023768;28;20657;-54